sensor_id;sensor_type;location;lat;lon;timestamp;P1;durP1;ratioP1;P2;durP2;ratioP2
18929;SDS011;43305;52.186;5.598;2022-12-07T00:00:26;7.45;;;3.20;;
18929;SDS011;43305;52.186;5.598;2022-12-07T00:02:53;7.30;;;3.60;;
18929;SDS011;43305;52.186;5.598;2022-12-07T00:05:20;9.82;;;3.60;;
18929;SDS011;43305;52.186;5.598;2022-12-07T00:07:48;9.00;;;3.17;;
18929;SDS011;43305;52.186;5.598;2022-12-07T00:10:25;9.43;;;3.25;;
18929;SDS011;43305;52.186;5.598;2022-12-07T00:12:55;9.35;;;3.15;;
18929;SDS011;43305;52.186;5.598;2022-12-07T00:15:24;7.95;;;3.28;;
18929;SDS011;43305;52.186;5.598;2022-12-07T00:17:55;8.27;;;3.55;;
18929;SDS011;43305;52.186;5.598;2022-12-07T00:20:22;9.55;;;3.45;;
18929;SDS011;43305;52.186;5.598;2022-12-07T00:22:54;12.40;;;4.00;;
18929;SDS011;43305;52.186;5.598;2022-12-07T00:25:21;11.38;;;3.40;;
18929;SDS011;43305;52.186;5.598;2022-12-07T00:27:50;11.30;;;3.25;;
18929;SDS011;43305;52.186;5.598;2022-12-07T00:30:21;11.13;;;3.30;;
18929;SDS011;43305;52.186;5.598;2022-12-07T00:32:52;10.25;;;3.65;;
18929;SDS011;43305;52.186;5.598;2022-12-07T00:35:28;11.85;;;3.38;;
18929;SDS011;43305;52.186;5.598;2022-12-07T00:37:59;11.15;;;3.67;;
18929;SDS011;43305;52.186;5.598;2022-12-07T00:40:28;10.85;;;3.58;;
18929;SDS011;43305;52.186;5.598;2022-12-07T00:42:55;10.50;;;3.67;;
18929;SDS011;43305;52.186;5.598;2022-12-07T00:45:22;8.60;;;3.55;;
18929;SDS011;43305;52.186;5.598;2022-12-07T00:47:48;7.97;;;3.17;;
18929;SDS011;43305;52.186;5.598;2022-12-07T00:50:17;13.48;;;3.55;;
18929;SDS011;43305;52.186;5.598;2022-12-07T00:52:44;13.73;;;3.90;;
18929;SDS011;43305;52.186;5.598;2022-12-07T00:55:13;9.75;;;3.83;;
18929;SDS011;43305;52.186;5.598;2022-12-07T00:57:40;10.27;;;3.78;;
18929;SDS011;43305;52.186;5.598;2022-12-07T01:00:09;12.18;;;4.10;;
18929;SDS011;43305;52.186;5.598;2022-12-07T01:02:41;20.55;;;4.40;;
18929;SDS011;43305;52.186;5.598;2022-12-07T01:05:08;12.05;;;4.15;;
18929;SDS011;43305;52.186;5.598;2022-12-07T01:07:44;11.02;;;4.25;;
18929;SDS011;43305;52.186;5.598;2022-12-07T01:10:20;11.45;;;3.85;;
18929;SDS011;43305;52.186;5.598;2022-12-07T01:12:55;10.95;;;4.05;;
18929;SDS011;43305;52.186;5.598;2022-12-07T01:15:25;14.55;;;4.68;;
18929;SDS011;43305;52.186;5.598;2022-12-07T01:17:52;14.10;;;4.35;;
18929;SDS011;43305;52.186;5.598;2022-12-07T01:20:19;15.05;;;5.00;;
18929;SDS011;43305;52.186;5.598;2022-12-07T01:23:03;20.17;;;4.75;;
18929;SDS011;43305;52.186;5.598;2022-12-07T01:25:35;13.18;;;4.65;;
18929;SDS011;43305;52.186;5.598;2022-12-07T01:28:03;13.43;;;4.60;;
18929;SDS011;43305;52.186;5.598;2022-12-07T01:30:35;12.18;;;4.50;;
18929;SDS011;43305;52.186;5.598;2022-12-07T01:33:04;16.50;;;4.70;;
18929;SDS011;43305;52.186;5.598;2022-12-07T01:35:33;15.60;;;4.88;;
18929;SDS011;43305;52.186;5.598;2022-12-07T01:38:03;14.55;;;5.00;;
18929;SDS011;43305;52.186;5.598;2022-12-07T01:40:33;11.60;;;4.32;;
18929;SDS011;43305;52.186;5.598;2022-12-07T01:43:04;11.90;;;4.63;;
18929;SDS011;43305;52.186;5.598;2022-12-07T01:45:42;12.98;;;3.97;;
18929;SDS011;43305;52.186;5.598;2022-12-07T01:48:18;15.93;;;4.60;;
18929;SDS011;43305;52.186;5.598;2022-12-07T01:50:48;13.70;;;4.45;;
18929;SDS011;43305;52.186;5.598;2022-12-07T01:53:23;14.95;;;4.43;;
18929;SDS011;43305;52.186;5.598;2022-12-07T01:55:54;10.05;;;3.88;;
18929;SDS011;43305;52.186;5.598;2022-12-07T01:58:24;10.63;;;3.95;;
18929;SDS011;43305;52.186;5.598;2022-12-07T02:00:54;15.23;;;4.00;;
18929;SDS011;43305;52.186;5.598;2022-12-07T02:03:25;11.50;;;3.95;;
18929;SDS011;43305;52.186;5.598;2022-12-07T02:05:57;25.08;;;4.65;;
18929;SDS011;43305;52.186;5.598;2022-12-07T02:08:27;11.30;;;3.50;;
18929;SDS011;43305;52.186;5.598;2022-12-07T02:10:56;11.43;;;3.85;;
18929;SDS011;43305;52.186;5.598;2022-12-07T02:13:23;12.07;;;3.60;;
18929;SDS011;43305;52.186;5.598;2022-12-07T02:15:59;9.52;;;3.70;;
18929;SDS011;43305;52.186;5.598;2022-12-07T02:18:41;10.82;;;3.53;;
18929;SDS011;43305;52.186;5.598;2022-12-07T02:21:24;11.23;;;3.80;;
18929;SDS011;43305;52.186;5.598;2022-12-07T02:24:12;11.45;;;3.47;;
18929;SDS011;43305;52.186;5.598;2022-12-07T02:29:58;13.85;;;4.07;;
18929;SDS011;43305;52.186;5.598;2022-12-07T02:32:28;14.30;;;3.40;;
18929;SDS011;43305;52.186;5.598;2022-12-07T02:35:08;8.77;;;3.50;;
18929;SDS011;43305;52.186;5.598;2022-12-07T02:37:40;8.57;;;3.33;;
18929;SDS011;43305;52.186;5.598;2022-12-07T02:40:24;17.77;;;3.22;;
18929;SDS011;43305;52.186;5.598;2022-12-07T02:42:57;12.18;;;3.00;;
18929;SDS011;43305;52.186;5.598;2022-12-07T02:45:31;10.23;;;3.10;;
18929;SDS011;43305;52.186;5.598;2022-12-07T02:48:04;11.50;;;3.20;;
18929;SDS011;43305;52.186;5.598;2022-12-07T02:50:34;12.65;;;2.78;;
18929;SDS011;43305;52.186;5.598;2022-12-07T02:53:01;10.43;;;2.92;;
18929;SDS011;43305;52.186;5.598;2022-12-07T02:55:28;8.27;;;2.85;;
18929;SDS011;43305;52.186;5.598;2022-12-07T02:58:07;10.10;;;2.80;;
18929;SDS011;43305;52.186;5.598;2022-12-07T03:00:48;11.18;;;2.78;;
18929;SDS011;43305;52.186;5.598;2022-12-07T03:03:21;9.75;;;2.85;;
18929;SDS011;43305;52.186;5.598;2022-12-07T03:05:58;9.90;;;2.60;;
18929;SDS011;43305;52.186;5.598;2022-12-07T03:08:35;8.77;;;2.67;;
18929;SDS011;43305;52.186;5.598;2022-12-07T03:11:14;13.13;;;2.40;;
18929;SDS011;43305;52.186;5.598;2022-12-07T03:13:47;11.27;;;2.13;;
18929;SDS011;43305;52.186;5.598;2022-12-07T03:16:21;9.68;;;2.30;;
18929;SDS011;43305;52.186;5.598;2022-12-07T03:18:58;8.90;;;2.28;;
18929;SDS011;43305;52.186;5.598;2022-12-07T03:21:33;8.30;;;2.22;;
18929;SDS011;43305;52.186;5.598;2022-12-07T03:24:10;5.82;;;2.00;;
18929;SDS011;43305;52.186;5.598;2022-12-07T03:26:42;9.73;;;2.03;;
18929;SDS011;43305;52.186;5.598;2022-12-07T03:29:19;11.52;;;2.05;;
18929;SDS011;43305;52.186;5.598;2022-12-07T03:31:58;9.18;;;2.13;;
18929;SDS011;43305;52.186;5.598;2022-12-07T03:34:34;10.05;;;2.15;;
18929;SDS011;43305;52.186;5.598;2022-12-07T03:37:07;11.95;;;2.17;;
18929;SDS011;43305;52.186;5.598;2022-12-07T03:39:44;11.63;;;2.40;;
18929;SDS011;43305;52.186;5.598;2022-12-07T03:42:20;12.57;;;2.05;;
18929;SDS011;43305;52.186;5.598;2022-12-07T03:44:47;10.75;;;1.92;;
18929;SDS011;43305;52.186;5.598;2022-12-07T03:47:18;9.35;;;2.15;;
18929;SDS011;43305;52.186;5.598;2022-12-07T03:49:53;15.50;;;1.88;;
18929;SDS011;43305;52.186;5.598;2022-12-07T03:52:25;10.90;;;1.80;;
18929;SDS011;43305;52.186;5.598;2022-12-07T03:54:58;10.18;;;1.85;;
18929;SDS011;43305;52.186;5.598;2022-12-07T03:57:30;9.48;;;1.70;;
18929;SDS011;43305;52.186;5.598;2022-12-07T04:00:03;9.60;;;1.80;;
18929;SDS011;43305;52.186;5.598;2022-12-07T04:02:34;10.90;;;1.70;;
18929;SDS011;43305;52.186;5.598;2022-12-07T04:05:02;7.68;;;1.75;;
18929;SDS011;43305;52.186;5.598;2022-12-07T04:07:29;9.35;;;1.90;;
18929;SDS011;43305;52.186;5.598;2022-12-07T04:09:56;7.90;;;1.50;;
18929;SDS011;43305;52.186;5.598;2022-12-07T04:12:23;13.02;;;1.77;;
18929;SDS011;43305;52.186;5.598;2022-12-07T04:14:50;7.40;;;1.50;;
18929;SDS011;43305;52.186;5.598;2022-12-07T04:17:18;9.52;;;1.65;;
18929;SDS011;43305;52.186;5.598;2022-12-07T04:19:47;10.10;;;1.70;;
18929;SDS011;43305;52.186;5.598;2022-12-07T04:22:14;9.40;;;1.95;;
18929;SDS011;43305;52.186;5.598;2022-12-07T04:24:46;6.90;;;1.75;;
18929;SDS011;43305;52.186;5.598;2022-12-07T04:27:13;8.45;;;1.30;;
18929;SDS011;43305;52.186;5.598;2022-12-07T04:29:40;7.88;;;1.92;;
18929;SDS011;43305;52.186;5.598;2022-12-07T04:32:07;7.72;;;1.50;;
18929;SDS011;43305;52.186;5.598;2022-12-07T04:34:33;7.85;;;1.60;;
18929;SDS011;43305;52.186;5.598;2022-12-07T04:37:01;7.97;;;1.67;;
18929;SDS011;43305;52.186;5.598;2022-12-07T04:39:29;6.45;;;1.65;;
18929;SDS011;43305;52.186;5.598;2022-12-07T04:42:00;7.53;;;1.98;;
18929;SDS011;43305;52.186;5.598;2022-12-07T04:44:29;7.90;;;1.80;;
18929;SDS011;43305;52.186;5.598;2022-12-07T04:46:56;10.57;;;2.22;;
18929;SDS011;43305;52.186;5.598;2022-12-07T04:49:26;8.15;;;1.75;;
18929;SDS011;43305;52.186;5.598;2022-12-07T04:51:53;8.73;;;1.77;;
18929;SDS011;43305;52.186;5.598;2022-12-07T04:54:21;8.50;;;1.65;;
18929;SDS011;43305;52.186;5.598;2022-12-07T04:56:48;15.18;;;2.00;;
18929;SDS011;43305;52.186;5.598;2022-12-07T04:59:16;13.35;;;2.10;;
18929;SDS011;43305;52.186;5.598;2022-12-07T05:01:45;18.83;;;2.33;;
18929;SDS011;43305;52.186;5.598;2022-12-07T05:04:11;8.63;;;2.00;;
18929;SDS011;43305;52.186;5.598;2022-12-07T05:06:38;9.23;;;2.22;;
18929;SDS011;43305;52.186;5.598;2022-12-07T05:09:05;13.82;;;2.00;;
18929;SDS011;43305;52.186;5.598;2022-12-07T05:11:36;14.52;;;2.30;;
18929;SDS011;43305;52.186;5.598;2022-12-07T05:14:06;10.63;;;2.30;;
18929;SDS011;43305;52.186;5.598;2022-12-07T05:16:35;8.20;;;2.05;;
18929;SDS011;43305;52.186;5.598;2022-12-07T05:19:08;13.30;;;2.67;;
18929;SDS011;43305;52.186;5.598;2022-12-07T05:21:36;13.77;;;2.30;;
18929;SDS011;43305;52.186;5.598;2022-12-07T05:24:03;7.20;;;1.80;;
18929;SDS011;43305;52.186;5.598;2022-12-07T05:26:33;7.30;;;2.40;;
18929;SDS011;43305;52.186;5.598;2022-12-07T05:29:01;10.10;;;2.42;;
18929;SDS011;43305;52.186;5.598;2022-12-07T05:31:31;8.55;;;2.05;;
18929;SDS011;43305;52.186;5.598;2022-12-07T05:34:01;9.20;;;1.80;;
18929;SDS011;43305;52.186;5.598;2022-12-07T05:36:27;8.73;;;1.80;;
18929;SDS011;43305;52.186;5.598;2022-12-07T05:38:57;9.13;;;2.00;;
18929;SDS011;43305;52.186;5.598;2022-12-07T05:41:24;9.43;;;1.90;;
18929;SDS011;43305;52.186;5.598;2022-12-07T05:44:06;6.57;;;1.90;;
18929;SDS011;43305;52.186;5.598;2022-12-07T05:46:33;11.15;;;2.10;;
18929;SDS011;43305;52.186;5.598;2022-12-07T05:49:00;11.32;;;2.10;;
18929;SDS011;43305;52.186;5.598;2022-12-07T05:51:27;5.80;;;1.48;;
18929;SDS011;43305;52.186;5.598;2022-12-07T05:53:59;8.98;;;2.08;;
18929;SDS011;43305;52.186;5.598;2022-12-07T05:56:28;11.88;;;2.25;;
18929;SDS011;43305;52.186;5.598;2022-12-07T05:58:55;12.32;;;2.42;;
18929;SDS011;43305;52.186;5.598;2022-12-07T06:01:37;10.48;;;1.92;;
18929;SDS011;43305;52.186;5.598;2022-12-07T06:04:06;14.93;;;2.25;;
18929;SDS011;43305;52.186;5.598;2022-12-07T06:06:34;12.77;;;2.35;;
18929;SDS011;43305;52.186;5.598;2022-12-07T06:09:01;15.40;;;2.15;;
18929;SDS011;43305;52.186;5.598;2022-12-07T06:11:34;13.40;;;2.88;;
18929;SDS011;43305;52.186;5.598;2022-12-07T06:14:15;11.68;;;2.80;;
18929;SDS011;43305;52.186;5.598;2022-12-07T06:16:43;9.98;;;2.20;;
18929;SDS011;43305;52.186;5.598;2022-12-07T06:19:12;14.25;;;2.20;;
18929;SDS011;43305;52.186;5.598;2022-12-07T06:21:38;13.60;;;1.95;;
18929;SDS011;43305;52.186;5.598;2022-12-07T06:24:06;8.75;;;2.00;;
18929;SDS011;43305;52.186;5.598;2022-12-07T06:26:33;8.13;;;1.70;;
18929;SDS011;43305;52.186;5.598;2022-12-07T06:29:00;11.25;;;1.90;;
18929;SDS011;43305;52.186;5.598;2022-12-07T06:31:27;8.27;;;1.48;;
18929;SDS011;43305;52.186;5.598;2022-12-07T06:33:58;8.35;;;1.50;;
18929;SDS011;43305;52.186;5.598;2022-12-07T06:36:25;11.82;;;1.70;;
18929;SDS011;43305;52.186;5.598;2022-12-07T06:38:52;12.93;;;1.75;;
18929;SDS011;43305;52.186;5.598;2022-12-07T06:41:18;15.65;;;1.88;;
18929;SDS011;43305;52.186;5.598;2022-12-07T06:43:45;13.43;;;1.95;;
18929;SDS011;43305;52.186;5.598;2022-12-07T06:46:12;8.98;;;1.95;;
18929;SDS011;43305;52.186;5.598;2022-12-07T06:48:41;8.30;;;1.73;;
18929;SDS011;43305;52.186;5.598;2022-12-07T06:51:11;11.00;;;1.85;;
18929;SDS011;43305;52.186;5.598;2022-12-07T06:53:38;10.77;;;1.75;;
18929;SDS011;43305;52.186;5.598;2022-12-07T06:56:04;6.82;;;1.45;;
18929;SDS011;43305;52.186;5.598;2022-12-07T06:58:32;13.85;;;1.88;;
18929;SDS011;43305;52.186;5.598;2022-12-07T07:00:58;10.45;;;2.03;;
18929;SDS011;43305;52.186;5.598;2022-12-07T07:03:33;11.10;;;3.08;;
18929;SDS011;43305;52.186;5.598;2022-12-07T07:05:59;13.02;;;2.85;;
18929;SDS011;43305;52.186;5.598;2022-12-07T07:08:29;12.48;;;2.00;;
18929;SDS011;43305;52.186;5.598;2022-12-07T07:10:56;6.93;;;1.73;;
18929;SDS011;43305;52.186;5.598;2022-12-07T07:13:25;12.00;;;1.80;;
18929;SDS011;43305;52.186;5.598;2022-12-07T07:15:52;8.35;;;1.70;;
18929;SDS011;43305;52.186;5.598;2022-12-07T07:18:19;9.77;;;1.63;;
18929;SDS011;43305;52.186;5.598;2022-12-07T07:20:46;10.02;;;2.20;;
18929;SDS011;43305;52.186;5.598;2022-12-07T07:23:13;10.23;;;1.83;;
18929;SDS011;43305;52.186;5.598;2022-12-07T07:25:41;12.25;;;2.05;;
18929;SDS011;43305;52.186;5.598;2022-12-07T07:28:14;7.05;;;1.95;;
18929;SDS011;43305;52.186;5.598;2022-12-07T07:30:41;9.50;;;2.03;;
18929;SDS011;43305;52.186;5.598;2022-12-07T07:33:10;8.63;;;1.60;;
18929;SDS011;43305;52.186;5.598;2022-12-07T07:35:39;17.05;;;2.20;;
18929;SDS011;43305;52.186;5.598;2022-12-07T07:38:07;9.35;;;1.75;;
18929;SDS011;43305;52.186;5.598;2022-12-07T07:40:34;9.73;;;1.50;;
18929;SDS011;43305;52.186;5.598;2022-12-07T07:43:03;10.52;;;1.95;;
18929;SDS011;43305;52.186;5.598;2022-12-07T07:45:32;11.10;;;2.13;;
18929;SDS011;43305;52.186;5.598;2022-12-07T07:48:02;11.10;;;2.10;;
18929;SDS011;43305;52.186;5.598;2022-12-07T07:50:29;8.15;;;1.80;;
18929;SDS011;43305;52.186;5.598;2022-12-07T07:52:56;9.85;;;1.73;;
18929;SDS011;43305;52.186;5.598;2022-12-07T07:55:23;8.35;;;1.95;;
18929;SDS011;43305;52.186;5.598;2022-12-07T07:57:50;6.72;;;1.90;;
18929;SDS011;43305;52.186;5.598;2022-12-07T08:00:19;11.38;;;1.95;;
18929;SDS011;43305;52.186;5.598;2022-12-07T08:02:47;10.90;;;1.98;;
18929;SDS011;43305;52.186;5.598;2022-12-07T08:05:14;12.95;;;2.08;;
18929;SDS011;43305;52.186;5.598;2022-12-07T08:07:40;12.48;;;2.45;;
18929;SDS011;43305;52.186;5.598;2022-12-07T08:10:09;6.45;;;1.63;;
18929;SDS011;43305;52.186;5.598;2022-12-07T08:12:38;6.40;;;1.70;;
18929;SDS011;43305;52.186;5.598;2022-12-07T08:15:29;9.70;;;2.35;;
18929;SDS011;43305;52.186;5.598;2022-12-07T08:17:59;9.55;;;2.25;;
18929;SDS011;43305;52.186;5.598;2022-12-07T08:20:26;8.95;;;2.00;;
18929;SDS011;43305;52.186;5.598;2022-12-07T08:22:52;7.13;;;2.05;;
18929;SDS011;43305;52.186;5.598;2022-12-07T08:25:19;11.73;;;1.95;;
18929;SDS011;43305;52.186;5.598;2022-12-07T08:27:47;10.27;;;2.40;;
18929;SDS011;43305;52.186;5.598;2022-12-07T08:30:13;12.38;;;2.30;;
18929;SDS011;43305;52.186;5.598;2022-12-07T08:32:41;10.75;;;2.35;;
18929;SDS011;43305;52.186;5.598;2022-12-07T08:35:10;11.77;;;2.42;;
18929;SDS011;43305;52.186;5.598;2022-12-07T08:37:37;13.27;;;2.70;;
18929;SDS011;43305;52.186;5.598;2022-12-07T08:40:04;12.40;;;2.35;;
18929;SDS011;43305;52.186;5.598;2022-12-07T08:42:33;8.48;;;2.30;;
18929;SDS011;43305;52.186;5.598;2022-12-07T08:45:08;15.20;;;2.58;;
18929;SDS011;43305;52.186;5.598;2022-12-07T08:47:42;9.25;;;2.30;;
18929;SDS011;43305;52.186;5.598;2022-12-07T08:50:14;9.90;;;2.72;;
18929;SDS011;43305;52.186;5.598;2022-12-07T08:52:43;14.85;;;2.60;;
18929;SDS011;43305;52.186;5.598;2022-12-07T08:57:58;17.52;;;2.97;;
18929;SDS011;43305;52.186;5.598;2022-12-07T09:00:26;14.40;;;2.75;;
18929;SDS011;43305;52.186;5.598;2022-12-07T09:02:58;10.10;;;2.63;;
18929;SDS011;43305;52.186;5.598;2022-12-07T09:05:25;7.70;;;2.58;;
18929;SDS011;43305;52.186;5.598;2022-12-07T09:07:54;13.45;;;2.80;;
18929;SDS011;43305;52.186;5.598;2022-12-07T09:10:28;8.95;;;2.75;;
18929;SDS011;43305;52.186;5.598;2022-12-07T09:12:55;11.70;;;3.08;;
18929;SDS011;43305;52.186;5.598;2022-12-07T09:15:25;10.30;;;3.38;;
18929;SDS011;43305;52.186;5.598;2022-12-07T09:18:01;12.75;;;3.20;;
18929;SDS011;43305;52.186;5.598;2022-12-07T09:20:30;13.18;;;3.65;;
18929;SDS011;43305;52.186;5.598;2022-12-07T09:22:58;15.25;;;3.70;;
18929;SDS011;43305;52.186;5.598;2022-12-07T09:25:28;16.58;;;3.47;;
18929;SDS011;43305;52.186;5.598;2022-12-07T09:27:57;14.85;;;3.38;;
18929;SDS011;43305;52.186;5.598;2022-12-07T09:30:27;12.40;;;3.00;;
18929;SDS011;43305;52.186;5.598;2022-12-07T09:32:59;7.30;;;2.33;;
18929;SDS011;43305;52.186;5.598;2022-12-07T09:35:34;9.80;;;2.38;;
18929;SDS011;43305;52.186;5.598;2022-12-07T09:38:02;7.35;;;2.20;;
18929;SDS011;43305;52.186;5.598;2022-12-07T09:40:34;7.45;;;1.77;;
18929;SDS011;43305;52.186;5.598;2022-12-07T09:43:03;10.50;;;2.35;;
18929;SDS011;43305;52.186;5.598;2022-12-07T09:45:37;8.70;;;2.40;;
18929;SDS011;43305;52.186;5.598;2022-12-07T09:48:09;10.77;;;2.20;;
18929;SDS011;43305;52.186;5.598;2022-12-07T09:50:48;8.77;;;1.67;;
18929;SDS011;43305;52.186;5.598;2022-12-07T09:53:24;9.23;;;2.20;;
18929;SDS011;43305;52.186;5.598;2022-12-07T09:55:56;14.90;;;2.53;;
18929;SDS011;43305;52.186;5.598;2022-12-07T09:58:28;11.13;;;2.50;;
18929;SDS011;43305;52.186;5.598;2022-12-07T10:01:04;6.40;;;2.10;;
18929;SDS011;43305;52.186;5.598;2022-12-07T10:03:45;7.97;;;2.58;;
18929;SDS011;43305;52.186;5.598;2022-12-07T10:06:19;6.03;;;1.60;;
18929;SDS011;43305;52.186;5.598;2022-12-07T10:08:46;9.98;;;2.10;;
18929;SDS011;43305;52.186;5.598;2022-12-07T10:11:14;6.63;;;1.55;;
18929;SDS011;43305;52.186;5.598;2022-12-07T10:13:42;6.93;;;1.60;;
18929;SDS011;43305;52.186;5.598;2022-12-07T10:16:27;8.90;;;2.10;;
18929;SDS011;43305;52.186;5.598;2022-12-07T10:19:16;4.95;;;1.27;;
18929;SDS011;43305;52.186;5.598;2022-12-07T10:21:59;7.75;;;1.20;;
18929;SDS011;43305;52.186;5.598;2022-12-07T10:24:28;5.95;;;1.50;;
18929;SDS011;43305;52.186;5.598;2022-12-07T10:26:56;4.80;;;1.15;;
18929;SDS011;43305;52.186;5.598;2022-12-07T10:29:34;5.40;;;1.10;;
18929;SDS011;43305;52.186;5.598;2022-12-07T10:37:52;9.73;;;1.55;;
18929;SDS011;43305;52.186;5.598;2022-12-07T10:40:28;5.25;;;1.33;;
18929;SDS011;43305;52.186;5.598;2022-12-07T10:43:00;6.28;;;1.27;;
18929;SDS011;43305;52.186;5.598;2022-12-07T10:45:29;4.78;;;1.73;;
18929;SDS011;43305;52.186;5.598;2022-12-07T10:47:58;9.63;;;1.27;;
18929;SDS011;43305;52.186;5.598;2022-12-07T10:50:41;5.45;;;1.25;;
18929;SDS011;43305;52.186;5.598;2022-12-07T10:53:21;9.25;;;1.55;;
18929;SDS011;43305;52.186;5.598;2022-12-07T10:56:07;9.27;;;1.52;;
18929;SDS011;43305;52.186;5.598;2022-12-07T10:58:48;10.05;;;2.35;;
18929;SDS011;43305;52.186;5.598;2022-12-07T11:01:29;5.75;;;1.55;;
18929;SDS011;43305;52.186;5.598;2022-12-07T11:04:04;9.88;;;1.67;;
18929;SDS011;43305;52.186;5.598;2022-12-07T11:06:51;5.45;;;1.02;;
18929;SDS011;43305;52.186;5.598;2022-12-07T11:09:29;7.25;;;1.35;;
18929;SDS011;43305;52.186;5.598;2022-12-07T11:12:14;5.85;;;1.17;;
18929;SDS011;43305;52.186;5.598;2022-12-07T11:14:48;6.00;;;1.10;;
18929;SDS011;43305;52.186;5.598;2022-12-07T11:17:26;9.85;;;1.10;;
18929;SDS011;43305;52.186;5.598;2022-12-07T11:20:04;9.73;;;1.10;;
18929;SDS011;43305;52.186;5.598;2022-12-07T11:22:48;6.47;;;1.60;;
18929;SDS011;43305;52.186;5.598;2022-12-07T11:25:23;7.35;;;1.35;;
18929;SDS011;43305;52.186;5.598;2022-12-07T11:28:08;4.05;;;0.88;;
18929;SDS011;43305;52.186;5.598;2022-12-07T11:30:48;4.72;;;1.10;;
18929;SDS011;43305;52.186;5.598;2022-12-07T11:33:25;8.05;;;1.23;;
18929;SDS011;43305;52.186;5.598;2022-12-07T11:36:02;5.45;;;0.90;;
18929;SDS011;43305;52.186;5.598;2022-12-07T11:38:42;9.90;;;1.27;;
18929;SDS011;43305;52.186;5.598;2022-12-07T11:41:12;6.97;;;1.08;;
18929;SDS011;43305;52.186;5.598;2022-12-07T11:43:46;5.60;;;1.67;;
18929;SDS011;43305;52.186;5.598;2022-12-07T11:46:22;9.27;;;1.65;;
18929;SDS011;43305;52.186;5.598;2022-12-07T11:48:58;9.27;;;1.70;;
18929;SDS011;43305;52.186;5.598;2022-12-07T11:51:33;7.80;;;1.48;;
18929;SDS011;43305;52.186;5.598;2022-12-07T11:54:11;6.72;;;1.15;;
18929;SDS011;43305;52.186;5.598;2022-12-07T11:56:44;5.15;;;0.93;;
18929;SDS011;43305;52.186;5.598;2022-12-07T11:59:17;12.23;;;1.10;;
18929;SDS011;43305;52.186;5.598;2022-12-07T12:01:53;5.38;;;1.20;;
18929;SDS011;43305;52.186;5.598;2022-12-07T12:04:34;10.18;;;1.45;;
18929;SDS011;43305;52.186;5.598;2022-12-07T12:07:14;12.40;;;1.55;;
18929;SDS011;43305;52.186;5.598;2022-12-07T12:09:48;6.88;;;1.20;;
18929;SDS011;43305;52.186;5.598;2022-12-07T12:12:30;9.48;;;1.10;;
18929;SDS011;43305;52.186;5.598;2022-12-07T12:15:13;9.77;;;1.10;;
18929;SDS011;43305;52.186;5.598;2022-12-07T12:17:53;7.70;;;1.60;;
18929;SDS011;43305;52.186;5.598;2022-12-07T12:20:32;14.15;;;2.58;;
18929;SDS011;43305;52.186;5.598;2022-12-07T12:23:10;10.60;;;1.63;;
18929;SDS011;43305;52.186;5.598;2022-12-07T12:25:42;7.68;;;1.58;;
18929;SDS011;43305;52.186;5.598;2022-12-07T12:28:21;8.15;;;1.15;;
18929;SDS011;43305;52.186;5.598;2022-12-07T12:33:42;6.03;;;1.00;;
18929;SDS011;43305;52.186;5.598;2022-12-07T12:36:20;9.70;;;1.27;;
18929;SDS011;43305;52.186;5.598;2022-12-07T12:39:11;5.20;;;0.85;;
18929;SDS011;43305;52.186;5.598;2022-12-07T12:44:38;7.28;;;1.00;;
18929;SDS011;43305;52.186;5.598;2022-12-07T12:50:19;8.48;;;1.42;;
18929;SDS011;43305;52.186;5.598;2022-12-07T12:52:49;10.10;;;1.02;;
18929;SDS011;43305;52.186;5.598;2022-12-07T13:04:14;5.75;;;1.33;;
18929;SDS011;43305;52.186;5.598;2022-12-07T13:06:50;5.22;;;1.33;;
18929;SDS011;43305;52.186;5.598;2022-12-07T13:09:20;8.00;;;1.40;;
18929;SDS011;43305;52.186;5.598;2022-12-07T13:11:55;6.50;;;1.13;;
18929;SDS011;43305;52.186;5.598;2022-12-07T13:23:09;2.83;;;0.75;;
18929;SDS011;43305;52.186;5.598;2022-12-07T13:25:41;7.60;;;0.60;;
18929;SDS011;43305;52.186;5.598;2022-12-07T13:28:17;4.15;;;0.90;;
18929;SDS011;43305;52.186;5.598;2022-12-07T13:30:47;3.95;;;1.30;;
18929;SDS011;43305;52.186;5.598;2022-12-07T13:33:24;6.93;;;1.10;;
18929;SDS011;43305;52.186;5.598;2022-12-07T13:35:55;3.67;;;1.00;;
18929;SDS011;43305;52.186;5.598;2022-12-07T13:38:26;5.72;;;1.70;;
18929;SDS011;43305;52.186;5.598;2022-12-07T13:41:02;5.38;;;1.60;;
18929;SDS011;43305;52.186;5.598;2022-12-07T13:43:31;4.97;;;1.30;;
18929;SDS011;43305;52.186;5.598;2022-12-07T13:46:09;6.15;;;1.23;;
18929;SDS011;43305;52.186;5.598;2022-12-07T13:48:44;5.15;;;1.15;;
18929;SDS011;43305;52.186;5.598;2022-12-07T13:51:19;4.18;;;1.10;;
18929;SDS011;43305;52.186;5.598;2022-12-07T13:53:50;2.65;;;1.10;;
18929;SDS011;43305;52.186;5.598;2022-12-07T13:56:20;6.50;;;1.00;;
18929;SDS011;43305;52.186;5.598;2022-12-07T13:58:48;3.10;;;0.80;;
18929;SDS011;43305;52.186;5.598;2022-12-07T14:01:17;3.42;;;0.82;;
18929;SDS011;43305;52.186;5.598;2022-12-07T14:03:45;3.83;;;1.40;;
18929;SDS011;43305;52.186;5.598;2022-12-07T14:06:17;5.43;;;1.40;;
18929;SDS011;43305;52.186;5.598;2022-12-07T14:11:32;5.82;;;1.20;;
18929;SDS011;43305;52.186;5.598;2022-12-07T14:14:10;3.72;;;1.02;;
18929;SDS011;43305;52.186;5.598;2022-12-07T14:16:45;4.82;;;1.23;;
18929;SDS011;43305;52.186;5.598;2022-12-07T14:22:17;4.97;;;1.30;;
18929;SDS011;43305;52.186;5.598;2022-12-07T14:24:51;5.15;;;1.20;;
18929;SDS011;43305;52.186;5.598;2022-12-07T14:27:24;4.30;;;1.20;;
18929;SDS011;43305;52.186;5.598;2022-12-07T14:29:55;6.20;;;1.38;;
18929;SDS011;43305;52.186;5.598;2022-12-07T14:32:24;3.25;;;0.98;;
18929;SDS011;43305;52.186;5.598;2022-12-07T14:34:57;6.10;;;1.45;;
18929;SDS011;43305;52.186;5.598;2022-12-07T14:37:25;6.28;;;1.52;;
18929;SDS011;43305;52.186;5.598;2022-12-07T14:39:56;8.02;;;1.52;;
18929;SDS011;43305;52.186;5.598;2022-12-07T14:42:26;4.57;;;1.40;;
18929;SDS011;43305;52.186;5.598;2022-12-07T14:44:59;4.45;;;1.17;;
18929;SDS011;43305;52.186;5.598;2022-12-07T14:47:27;7.43;;;1.45;;
18929;SDS011;43305;52.186;5.598;2022-12-07T14:49:56;3.03;;;1.10;;
18929;SDS011;43305;52.186;5.598;2022-12-07T14:52:24;4.75;;;1.40;;
18929;SDS011;43305;52.186;5.598;2022-12-07T14:54:55;7.70;;;1.38;;
18929;SDS011;43305;52.186;5.598;2022-12-07T14:57:27;7.97;;;3.70;;
18929;SDS011;43305;52.186;5.598;2022-12-07T14:59:53;3.60;;;1.80;;
18929;SDS011;43305;52.186;5.598;2022-12-07T15:02:20;5.30;;;1.85;;
18929;SDS011;43305;52.186;5.598;2022-12-07T15:04:51;5.25;;;2.08;;
18929;SDS011;43305;52.186;5.598;2022-12-07T15:07:20;7.15;;;2.30;;
18929;SDS011;43305;52.186;5.598;2022-12-07T15:09:53;5.15;;;2.13;;
18929;SDS011;43305;52.186;5.598;2022-12-07T15:12:20;6.25;;;2.05;;
18929;SDS011;43305;52.186;5.598;2022-12-07T15:14:51;6.75;;;2.58;;
18929;SDS011;43305;52.186;5.598;2022-12-07T15:17:18;7.93;;;2.85;;
18929;SDS011;43305;52.186;5.598;2022-12-07T15:19:47;8.27;;;2.97;;
18929;SDS011;43305;52.186;5.598;2022-12-07T15:22:15;7.68;;;2.75;;
18929;SDS011;43305;52.186;5.598;2022-12-07T15:24:44;9.15;;;3.47;;
18929;SDS011;43305;52.186;5.598;2022-12-07T15:27:13;7.65;;;2.45;;
18929;SDS011;43305;52.186;5.598;2022-12-07T15:29:43;7.63;;;2.20;;
18929;SDS011;43305;52.186;5.598;2022-12-07T15:32:10;10.27;;;2.20;;
18929;SDS011;43305;52.186;5.598;2022-12-07T15:34:39;8.73;;;1.80;;
18929;SDS011;43305;52.186;5.598;2022-12-07T15:37:06;10.85;;;2.55;;
18929;SDS011;43305;52.186;5.598;2022-12-07T15:39:43;7.40;;;2.60;;
18929;SDS011;43305;52.186;5.598;2022-12-07T15:42:27;7.85;;;2.97;;
18929;SDS011;43305;52.186;5.598;2022-12-07T15:44:55;8.60;;;3.05;;
18929;SDS011;43305;52.186;5.598;2022-12-07T15:47:28;8.50;;;3.40;;
18929;SDS011;43305;52.186;5.598;2022-12-07T15:49:57;5.47;;;1.88;;
18929;SDS011;43305;52.186;5.598;2022-12-07T15:52:24;5.65;;;2.00;;